Time;durP1;ratioP1;P1;durP2;ratioP2;P2;SDS_P1;SDS_P2;PMS_P1;PMS_P2;Temp;Humidity;BMP_temperature;BMP_pressure;BME280_temperature;BME280_humidity;BME280_pressure;Samples;Min_cycle;Max_cycle;Signal;HPM_P1;HPM_P2
2022/10/07 00:00:54;;;;;;;10.65;2.30;;;9.60;99.90;;;;;;5094226;28;20068;-60
2022/10/07 00:03:22;;;;;;;5.82;2.35;;;9.60;99.90;;;;;;5113315;28;20495;-61
2022/10/07 00:06:01;;;;;;;8.57;3.00;;;9.60;99.90;;;;;;5113426;28;20437;-60
2022/10/07 00:08:28;;;;;;;8.02;2.60;;;9.60;99.90;;;;;;5112173;28;20105;-61
2022/10/07 00:10:55;;;;;;;8.20;2.30;;;9.60;99.90;;;;;;5095072;28;20056;-60
2022/10/07 00:13:22;;;;;;;13.85;2.85;;;9.60;99.90;;;;;;5113468;28;20377;-61
2022/10/07 00:15:49;;;;;;;8.30;2.30;;;9.60;99.90;;;;;;5112666;28;20051;-60
2022/10/07 00:18:16;;;;;;;13.77;3.35;;;9.60;99.90;;;;;;5113540;28;20135;-60
2022/10/07 00:20:43;;;;;;;9.30;2.38;;;9.60;99.90;;;;;;5112737;28;20070;-61
2022/10/07 00:23:11;;;;;;;6.07;2.60;;;9.60;99.90;;;;;;5094669;28;20055;-60
2022/10/07 00:25:38;;;;;;;6.00;2.95;;;9.60;99.90;;;;;;5113010;28;20051;-61
2022/10/07 00:28:05;;;;;;;9.32;2.40;;;9.70;99.90;;;;;;5113982;28;20104;-59
2022/10/07 00:30:32;;;;;;;12.88;2.60;;;9.60;99.90;;;;;;5116836;28;20055;-59
2022/10/07 00:32:59;;;;;;;8.27;2.53;;;9.70;99.90;;;;;;5099002;28;20058;-61
2022/10/07 00:35:26;;;;;;;12.30;2.10;;;9.70;99.90;;;;;;5098257;28;20093;-61
2022/10/07 00:37:54;;;;;;;5.63;2.22;;;9.70;99.90;;;;;;5117226;28;20506;-60
2022/10/07 00:40:22;;;;;;;10.00;2.50;;;9.60;99.90;;;;;;5098756;28;20093;-61
2022/10/07 00:42:49;;;;;;;17.65;3.03;;;9.60;99.90;;;;;;5098354;28;20087;-60
2022/10/07 00:45:18;;;;;;;11.98;3.00;;;9.60;99.90;;;;;;5098641;28;20059;-61
2022/10/07 00:47:47;;;;;;;8.20;2.50;;;9.60;99.90;;;;;;5099051;28;20083;-60
2022/10/07 00:50:17;;;;;;;14.00;3.40;;;9.60;99.90;;;;;;5116158;28;20047;-60
2022/10/07 00:52:49;;;;;;;6.90;2.20;;;9.60;99.90;;;;;;5116625;28;20051;-61
2022/10/07 00:55:21;;;;;;;8.05;2.67;;;9.50;99.90;;;;;;5098749;28;20087;-59
2022/10/07 00:57:52;;;;;;;6.55;2.22;;;9.50;99.90;;;;;;5115868;28;20059;-60
2022/10/07 01:00:20;;;;;;;16.45;2.80;;;9.50;99.90;;;;;;5116697;28;20101;-61
2022/10/07 01:02:48;;;;;;;16.70;3.17;;;9.50;99.90;;;;;;5116711;28;20108;-61
2022/10/07 01:05:16;;;;;;;8.45;2.70;;;9.40;99.90;;;;;;5094761;28;20093;-61
2022/10/07 01:07:45;;;;;;;9.88;2.30;;;9.40;99.90;;;;;;5097237;28;20051;-61
2022/10/07 01:10:14;;;;;;;9.18;2.38;;;9.40;99.90;;;;;;5097165;28;20054;-61
2022/10/07 01:12:56;;;;;;;13.80;2.55;;;9.30;99.90;;;;;;5116163;28;20097;-61
2022/10/07 01:15:32;;;;;;;6.65;2.40;;;9.30;99.90;;;;;;5098400;28;20051;-60
2022/10/07 01:18:08;;;;;;;7.78;2.20;;;9.20;99.90;;;;;;5097578;28;20059;-60
2022/10/07 01:20:44;;;;;;;8.10;3.22;;;9.20;99.90;;;;;;5116262;28;20051;-60
2022/10/07 01:23:31;;;;;;;10.43;2.58;;;9.20;99.90;;;;;;5116633;28;20043;-60
2022/10/07 01:26:26;;;;;;;14.70;3.05;;;9.20;99.90;;;;;;5095149;28;20135;-60
2022/10/07 01:28:57;;;;;;;10.48;2.58;;;9.20;99.90;;;;;;5095435;28;20131;-61
2022/10/07 01:31:29;;;;;;;12.50;2.92;;;9.20;99.90;;;;;;5083614;28;20050;-60
2022/10/07 01:33:56;;;;;;;10.95;3.50;;;9.10;99.90;;;;;;5098050;28;20104;-61
2022/10/07 01:36:25;;;;;;;13.52;2.88;;;9.10;99.90;;;;;;5098086;28;20376;-61
2022/10/07 01:39:01;;;;;;;7.72;2.70;;;9.10;99.90;;;;;;5096504;28;20480;-60
2022/10/07 01:41:31;;;;;;;7.07;2.58;;;9.10;99.90;;;;;;5116061;28;20079;-60
2022/10/07 01:44:00;;;;;;;11.30;3.42;;;9.00;99.90;;;;;;5116060;28;20051;-60
2022/10/07 01:46:29;;;;;;;6.22;2.50;;;9.00;99.90;;;;;;5096619;28;20096;-61
2022/10/07 01:48:56;;;;;;;7.50;2.60;;;9.00;99.90;;;;;;5115660;28;20116;-61
2022/10/07 01:51:27;;;;;;;7.75;2.75;;;9.00;99.90;;;;;;5115610;28;20080;-60
2022/10/07 01:54:01;;;;;;;10.38;3.13;;;9.00;99.90;;;;;;5115112;28;20048;-61
2022/10/07 01:56:57;;;;;;;11.82;3.28;;;8.90;99.90;;;;;;5116025;28;20090;-61
2022/10/07 01:59:45;;;;;;;8.25;2.70;;;8.90;99.90;;;;;;5115103;28;20051;-59
2022/10/07 02:02:23;;;;;;;15.52;3.15;;;8.80;99.90;;;;;;5115484;28;20044;-60
2022/10/07 02:04:58;;;;;;;13.45;3.00;;;8.80;99.90;;;;;;5114857;28;20055;-60
2022/10/07 02:07:34;;;;;;;8.40;3.42;;;8.80;99.90;;;;;;5096847;28;20055;-61
2022/10/07 02:10:12;;;;;;;12.93;3.80;;;8.80;99.90;;;;;;5097009;28;20120;-60
2022/10/07 02:12:47;;;;;;;8.25;2.95;;;8.70;99.90;;;;;;5115714;28;20126;-60
2022/10/07 02:15:16;;;;;;;11.90;3.58;;;8.70;99.90;;;;;;5114656;28;20399;-61
2022/10/07 02:17:52;;;;;;;15.18;3.80;;;8.70;99.90;;;;;;5097270;28;20059;-61
2022/10/07 02:20:23;;;;;;;14.50;3.78;;;8.70;99.90;;;;;;5095668;28;20089;-62
2022/10/07 02:22:51;;;;;;;;;;;8.70;99.90;;;;;;5115192;28;20051;-61
2022/10/07 02:25:20;;;;;;;11.52;3.53;;;8.70;99.90;;;;;;5115313;28;20324;-61
2022/10/07 02:27:52;;;;;;;8.65;3.33;;;8.70;99.90;;;;;;5114391;28;20055;-61
2022/10/07 02:30:20;;;;;;;10.50;2.92;;;8.70;99.90;;;;;;5114634;28;20052;-61
2022/10/07 02:32:53;;;;;;;12.38;3.83;;;8.60;99.90;;;;;;5096840;28;20108;-60
2022/10/07 02:35:27;;;;;;;10.40;3.58;;;8.60;99.90;;;;;;5096028;28;20044;-61
2022/10/07 02:37:58;;;;;;;7.07;3.13;;;8.60;99.90;;;;;;5096673;28;20063;-60
2022/10/07 02:40:32;;;;;;;6.72;3.10;;;8.60;99.90;;;;;;5114366;28;20081;-61
2022/10/07 02:43:05;;;;;;;12.55;3.95;;;8.60;99.90;;;;;;5113900;28;20116;-60
2022/10/07 02:45:38;;;;;;;13.63;3.83;;;8.60;99.90;;;;;;5115090;28;20047;-61
2022/10/07 02:48:13;;;;;;;9.48;3.75;;;8.60;99.90;;;;;;5096711;28;20055;-61
2022/10/07 02:50:46;;;;;;;8.68;3.30;;;8.50;99.90;;;;;;5113173;28;20062;-61
2022/10/07 02:53:15;;;;;;;7.50;3.78;;;8.50;99.90;;;;;;5114303;28;20143;-60
2022/10/07 02:55:44;;;;;;;9.77;3.38;;;8.50;99.90;;;;;;5113569;28;20047;-60
2022/10/07 02:58:13;;;;;;;8.65;3.90;;;8.40;99.90;;;;;;5096088;28;20101;-60
2022/10/07 03:00:49;;;;;;;11.80;4.03;;;8.40;99.90;;;;;;5114334;28;20040;-61
2022/10/07 03:03:17;;;;;;;12.85;3.88;;;8.40;99.90;;;;;;5113327;28;20140;-60
2022/10/07 03:05:43;;;;;;;17.27;4.35;;;8.30;99.90;;;;;;5114438;28;20048;-60
2022/10/07 03:08:11;;;;;;;9.25;3.70;;;8.30;99.90;;;;;;5114033;28;20051;-61
2022/10/07 03:10:38;;;;;;;9.02;3.70;;;8.30;99.90;;;;;;5113436;28;20048;-61
2022/10/07 03:13:06;;;;;;;9.02;3.78;;;8.30;99.90;;;;;;5096399;28;20154;-61
2022/10/07 03:15:36;;;;;;;15.98;4.07;;;8.20;99.90;;;;;;5114269;28;20047;-62
2022/10/07 03:18:03;;;;;;;8.60;3.38;;;8.20;99.90;;;;;;5113388;28;20123;-62
2022/10/07 03:20:31;;;;;;;14.20;3.88;;;8.20;99.90;;;;;;5113927;28;20349;-61
2022/10/07 03:22:58;;;;;;;11.23;3.97;;;8.20;99.90;;;;;;5095384;28;20055;-61
2022/10/07 03:25:25;;;;;;;10.68;3.70;;;8.20;99.90;;;;;;5113323;28;20048;-62
2022/10/07 03:27:53;;;;;;;11.90;3.72;;;8.10;99.90;;;;;;5114019;28;20055;-60
2022/10/07 03:30:21;;;;;;;11.85;4.35;;;8.10;99.90;;;;;;5076980;28;20056;-60
2022/10/07 03:32:49;;;;;;;13.05;4.13;;;8.10;99.90;;;;;;5092605;28;20475;-60
2022/10/07 03:35:17;;;;;;;16.95;3.83;;;8.10;99.90;;;;;;5093022;28;20060;-61
2022/10/07 03:37:44;;;;;;;13.45;4.18;;;8.00;99.90;;;;;;5074423;28;20047;-60
2022/10/07 03:40:11;;;;;;;16.90;5.10;;;8.00;99.90;;;;;;5093126;28;20446;-62
2022/10/07 03:42:38;;;;;;;9.38;3.67;;;8.00;99.90;;;;;;5093145;28;20097;-61
2022/10/07 03:45:06;;;;;;;9.27;4.20;;;7.90;99.90;;;;;;5074470;28;20056;-60
2022/10/07 03:47:33;;;;;;;9.38;4.15;;;7.90;99.90;;;;;;5075391;28;20109;-61
2022/10/07 03:50:02;;;;;;;14.13;4.32;;;7.90;99.90;;;;;;5093111;28;20127;-61
2022/10/07 03:52:29;;;;;;;9.52;4.30;;;7.90;99.90;;;;;;5074162;28;20052;-61
2022/10/07 03:54:56;;;;;;;13.52;4.32;;;7.90;99.90;;;;;;5074852;28;20059;-61
2022/10/07 04:00:08;;;;;;;12.63;4.30;;;8.00;99.90;;;;;;5092091;28;20058;-60
2022/10/07 04:02:34;;;;;;;15.98;4.22;;;8.00;99.90;;;;;;5092200;28;20044;-60
2022/10/07 04:05:03;;;;;;;12.23;4.50;;;8.00;99.90;;;;;;5093119;28;20051;-60
2022/10/07 04:07:30;;;;;;;14.18;4.28;;;8.00;99.90;;;;;;5074211;28;20097;-59
2022/10/07 04:09:57;;;;;;;11.95;4.25;;;8.00;99.90;;;;;;5074972;28;20063;-61
2022/10/07 04:12:24;;;;;;;17.60;4.65;;;8.00;99.90;;;;;;5093110;28;20048;-61
2022/10/07 04:14:51;;;;;;;16.70;4.45;;;8.00;99.90;;;;;;5091865;28;20051;-60
2022/10/07 04:17:18;;;;;;;11.15;4.40;;;7.90;99.90;;;;;;5075066;28;20048;-61
2022/10/07 04:19:46;;;;;;;15.52;4.25;;;7.90;99.90;;;;;;5074502;28;20139;-60
2022/10/07 04:22:14;;;;;;;14.23;4.85;;;7.90;99.90;;;;;;5074449;28;20048;-61
2022/10/07 04:24:41;;;;;;;9.27;4.65;;;8.00;99.90;;;;;;5074544;28;20089;-60
2022/10/07 04:27:08;;;;;;;12.02;4.57;;;8.00;99.90;;;;;;5092269;28;20109;-61
2022/10/07 04:29:34;;;;;;;18.23;5.00;;;7.90;99.90;;;;;;5060030;28;20113;-61
2022/10/07 04:32:01;;;;;;;15.52;5.10;;;8.00;99.90;;;;;;5080264;28;20040;-60
2022/10/07 04:34:29;;;;;;;17.63;4.57;;;8.00;99.90;;;;;;5086566;28;20051;-61
2022/10/07 04:36:57;;;;;;;15.52;4.80;;;8.10;99.90;;;;;;5082662;28;20046;-60
2022/10/07 04:39:25;;;;;;;11.65;4.75;;;8.10;99.90;;;;;;5087212;28;20048;-60
2022/10/07 04:41:53;;;;;;;19.00;5.05;;;8.10;99.90;;;;;;5082879;28;20044;-60
2022/10/07 04:44:20;;;;;;;18.48;4.88;;;8.10;99.90;;;;;;5087934;28;20131;-60
2022/10/07 04:46:47;;;;;;;14.05;4.72;;;8.10;99.90;;;;;;5081642;28;20093;-61
2022/10/07 04:49:14;;;;;;;16.73;5.82;;;8.10;99.90;;;;;;5084433;28;20118;-60
2022/10/07 04:51:41;;;;;;;17.83;4.45;;;8.10;99.90;;;;;;5065769;28;20102;-61
2022/10/07 04:54:08;;;;;;;12.80;4.28;;;8.10;99.90;;;;;;5083027;28;20063;-60
2022/10/07 04:56:36;;;;;;;22.20;6.72;;;8.20;99.90;;;;;;5065527;28;20097;-60
2022/10/07 04:59:03;;;;;;;13.57;4.43;;;8.50;99.90;;;;;;5085052;28;20082;-61
2022/10/07 05:01:30;;;;;;;13.65;4.32;;;8.40;99.90;;;;;;5082754;28;20094;-61
2022/10/07 05:03:58;;;;;;;14.77;4.47;;;8.60;99.90;;;;;;5080505;28;20044;-60
2022/10/07 05:06:25;;;;;;;12.38;4.80;;;8.80;99.90;;;;;;5072537;28;20113;-61
2022/10/07 05:08:53;;;;;;;15.25;4.43;;;8.80;99.90;;;;;;5071049;28;20158;-61
2022/10/07 05:11:19;;;;;;;13.60;3.75;;;8.90;99.90;;;;;;5069207;28;20471;-61
2022/10/07 05:13:48;;;;;;;13.15;4.35;;;9.10;99.90;;;;;;5072406;28;20495;-61
2022/10/07 05:16:15;;;;;;;18.67;4.90;;;9.00;99.90;;;;;;5073736;28;20678;-60
2022/10/07 05:18:41;;;;;;;14.00;4.50;;;9.00;99.90;;;;;;5056047;28;20114;-60
2022/10/07 05:21:09;;;;;;;15.25;4.72;;;9.00;99.90;;;;;;5059693;28;20059;-61
2022/10/07 05:23:36;;;;;;;14.68;5.03;;;9.00;99.90;;;;;;5081392;28;20124;-60
2022/10/07 05:26:06;;;;;;;15.50;4.85;;;9.00;99.90;;;;;;5074121;28;20106;-60
2022/10/07 05:28:34;;;;;;;8.98;4.32;;;9.00;99.90;;;;;;5078362;28;20456;-60
2022/10/07 05:31:06;;;;;;;24.42;5.43;;;9.00;99.90;;;;;;5093414;28;20101;-61
2022/10/07 05:33:34;;;;;;;15.10;5.63;;;9.20;99.90;;;;;;5089517;28;20244;-61
2022/10/07 05:36:01;;;;;;;16.80;5.13;;;9.20;99.90;;;;;;5096238;28;20060;-61
2022/10/07 05:38:28;;;;;;;15.90;5.15;;;9.20;99.90;;;;;;5093748;28;20044;-61
2022/10/07 05:40:58;;;;;;;16.95;5.32;;;9.30;99.90;;;;;;5093599;28;20056;-60
2022/10/07 05:43:25;;;;;;;13.40;4.40;;;9.30;99.90;;;;;;5094530;28;20102;-60
2022/10/07 05:46:04;;;;;;;12.15;4.55;;;9.20;99.90;;;;;;5098055;28;20097;-60
2022/10/07 05:48:33;;;;;;;18.80;5.47;;;9.10;99.90;;;;;;5087474;28;20444;-60
2022/10/07 05:51:00;;;;;;;13.95;4.40;;;9.10;99.90;;;;;;5085339;28;20108;-61
2022/10/07 05:53:28;;;;;;;11.70;4.55;;;9.00;99.90;;;;;;5099500;28;20093;-60
2022/10/07 05:55:55;;;;;;;12.35;4.63;;;9.00;99.90;;;;;;5094306;28;20048;-61
2022/10/07 05:58:22;;;;;;;17.05;5.63;;;9.00;99.90;;;;;;5075749;28;20052;-60
2022/10/07 06:00:52;;;;;;;15.82;5.40;;;9.00;99.90;;;;;;5098928;28;20052;-60
2022/10/07 06:03:21;;;;;;;19.63;5.30;;;9.00;99.90;;;;;;5101267;28;20051;-60
2022/10/07 06:05:49;;;;;;;12.43;5.38;;;9.00;99.90;;;;;;5078386;28;20067;-59
2022/10/07 06:08:18;;;;;;;16.42;5.47;;;9.10;99.90;;;;;;5099904;28;20052;-61
2022/10/07 06:13:29;;;;;;;16.05;5.32;;;9.20;99.90;;;;;;5097701;28;20047;-60
2022/10/07 06:16:01;;;;;;;16.10;5.00;;;9.30;99.90;;;;;;5093639;27;20060;-60
2022/10/07 06:18:29;;;;;;;12.95;5.13;;;9.30;99.90;;;;;;5093507;28;20139;-60
2022/10/07 06:20:57;;;;;;;14.88;4.80;;;9.40;99.90;;;;;;5084543;28;20054;-60
2022/10/07 06:23:24;;;;;;;16.38;4.90;;;9.40;99.90;;;;;;5103704;28;20040;-60
2022/10/07 06:25:55;;;;;;;18.17;4.72;;;9.50;99.90;;;;;;5089087;28;20112;-61
2022/10/07 06:28:23;;;;;;;15.95;5.25;;;9.50;99.90;;;;;;5095576;28;20047;-60
2022/10/07 06:30:50;;;;;;;15.77;5.20;;;9.60;99.90;;;;;;5100218;28;20048;-61
2022/10/07 06:33:18;;;;;;;11.90;4.70;;;9.60;99.90;;;;;;5105126;28;20126;-59
2022/10/07 06:35:47;;;;;;;13.20;5.03;;;9.70;99.90;;;;;;5092746;27;20047;-60
2022/10/07 06:38:14;;;;;;;15.02;4.95;;;9.80;99.90;;;;;;5056137;28;20590;-61
2022/10/07 06:40:41;;;;;;;13.48;5.15;;;9.80;99.90;;;;;;5084782;28;20074;-60
2022/10/07 06:43:08;;;;;;;16.17;5.05;;;9.90;99.90;;;;;;5082237;27;20582;-60
2022/10/07 06:45:35;;;;;;;19.83;6.07;;;10.00;99.90;;;;;;5086111;28;20043;-60
2022/10/07 06:48:02;;;;;;;13.32;4.72;;;10.10;99.90;;;;;;5076078;28;20082;-61
2022/10/07 06:50:28;;;;;;;18.25;5.05;;;10.10;99.90;;;;;;5102594;28;20108;-61
2022/10/07 06:52:57;;;;;;;13.00;4.90;;;10.20;99.90;;;;;;5076511;28;20044;-60
2022/10/07 06:55:25;;;;;;;15.95;5.60;;;10.30;99.90;;;;;;5078062;27;20056;-59
2022/10/07 06:57:52;;;;;;;14.15;4.25;;;10.50;99.90;;;;;;5081876;28;20056;-61
2022/10/07 07:00:19;;;;;;;16.80;4.68;;;10.70;99.90;;;;;;5092641;28;20051;-61
2022/10/07 07:02:46;;;;;;;12.07;4.30;;;11.00;99.90;;;;;;5097493;28;20492;-61
2022/10/07 07:05:15;;;;;;;9.88;3.53;;;11.40;99.90;;;;;;5074786;28;20061;-61
2022/10/07 07:07:42;;;;;;;9.63;3.40;;;12.10;99.90;;;;;;5109565;28;20123;-60
2022/10/07 07:10:10;;;;;;;9.40;4.10;;;13.00;99.90;;;;;;5108231;28;20524;-61
2022/10/07 07:12:37;;;;;;;12.45;3.83;;;13.90;99.90;;;;;;5092300;28;20047;-61
2022/10/07 07:15:04;;;;;;;13.00;4.15;;;14.60;99.90;;;;;;5108060;28;20441;-60
2022/10/07 07:17:31;;;;;;;14.25;4.25;;;15.20;99.90;;;;;;5091713;28;20981;-60
2022/10/07 07:19:58;;;;;;;15.48;3.75;;;15.60;99.90;;;;;;5074035;28;20056;-61
2022/10/07 07:22:25;;;;;;;10.23;4.05;;;16.10;99.90;;;;;;5101533;28;20048;-61
2022/10/07 07:24:52;;;;;;;14.45;4.03;;;16.60;99.90;;;;;;5097225;28;20048;-61
2022/10/07 07:27:20;;;;;;;16.60;4.63;;;16.80;99.90;;;;;;5092430;28;20055;-61
2022/10/07 07:29:47;;;;;;;11.55;4.15;;;17.20;99.90;;;;;;5110700;28;20064;-60
2022/10/07 07:32:14;;;;;;;14.07;3.72;;;17.40;99.90;;;;;;5081801;28;20052;-60
2022/10/07 07:34:41;;;;;;;9.95;3.08;;;17.60;99.90;;;;;;5092313;28;20484;-60
2022/10/07 07:37:08;;;;;;;12.00;3.95;;;18.00;99.90;;;;;;5086970;28;20059;-61
2022/10/07 07:39:35;;;;;;;8.75;3.67;;;18.40;99.90;;;;;;5102540;28;20488;-60
2022/10/07 07:42:02;;;;;;;12.60;3.58;;;18.30;99.90;;;;;;5087577;28;20445;-59
2022/10/07 07:44:32;;;;;;;10.32;3.33;;;18.30;99.90;;;;;;5093138;28;20405;-59
2022/10/07 07:46:59;;;;;;;10.77;3.53;;;18.50;99.90;;;;;;5094443;28;20101;-60
2022/10/07 07:49:28;;;;;;;12.23;3.92;;;18.90;99.90;;;;;;5096963;28;20309;-60
2022/10/07 07:51:55;;;;;;;9.55;3.83;;;19.10;99.90;;;;;;5102935;28;20052;-60
2022/10/07 07:54:24;;;;;;;10.68;3.20;;;19.70;99.90;;;;;;5073677;28;20047;-61
2022/10/07 07:56:51;;;;;;;15.18;3.40;;;19.60;99.90;;;;;;5092693;28;20063;-61
2022/10/07 07:59:18;;;;;;;12.35;3.92;;;19.80;99.90;;;;;;5090740;28;20059;-61
2022/10/07 08:01:46;;;;;;;10.73;3.58;;;19.90;99.90;;;;;;5091665;28;20450;-60
2022/10/07 08:04:14;;;;;;;12.27;3.30;;;20.30;99.90;;;;;;5076826;28;20043;-61
2022/10/07 08:06:41;;;;;;;14.75;3.80;;;20.80;99.90;;;;;;5086959;28;20451;-60
2022/10/07 08:09:08;;;;;;;8.80;2.90;;;21.10;99.90;;;;;;5098999;28;20052;-61
2022/10/07 08:11:35;;;;;;;12.43;3.67;;;20.90;98.90;;;;;;5083674;28;20113;-62
2022/10/07 08:14:02;;;;;;;13.40;3.80;;;20.90;98.90;;;;;;5094067;28;20449;-59
2022/10/07 08:16:29;;;;;;;7.78;3.10;;;21.00;98.90;;;;;;5099064;28;20086;-61
2022/10/07 08:18:58;;;;;;;10.00;3.33;;;20.90;97.20;;;;;;5073435;28;20113;-61
2022/10/07 08:21:27;;;;;;;12.77;3.67;;;21.00;97.10;;;;;;5076875;28;20052;-60
2022/10/07 08:23:56;;;;;;;12.38;3.72;;;21.20;97.50;;;;;;5091257;28;20040;-60
2022/10/07 08:26:23;;;;;;;13.90;3.90;;;21.20;97.70;;;;;;5095707;28;20052;-62
2022/10/07 08:28:50;;;;;;;9.18;2.97;;;21.30;97.00;;;;;;5090004;28;20060;-61
2022/10/07 08:31:19;;;;;;;10.88;3.33;;;21.70;96.90;;;;;;5091588;28;20055;-61
2022/10/07 08:33:48;;;;;;;10.43;3.00;;;22.10;96.20;;;;;;5091969;28;20450;-61
2022/10/07 08:36:18;;;;;;;12.05;3.65;;;22.50;95.50;;;;;;5083598;28;20051;-61
2022/10/07 08:38:46;;;;;;;8.70;3.53;;;22.60;94.70;;;;;;5091624;28;20434;-61
2022/10/07 08:41:36;;;;;;;9.85;4.07;;;22.50;94.60;;;;;;5098174;28;20056;-60
2022/10/07 08:44:14;;;;;;;8.60;2.88;;;22.00;93.00;;;;;;5091470;28;20140;-61
2022/10/07 08:46:51;;;;;;;13.23;3.40;;;22.10;93.40;;;;;;5091540;28;20552;-61
2022/10/07 08:49:23;;;;;;;10.13;3.00;;;22.20;94.10;;;;;;5080085;28;20055;-61
2022/10/07 08:51:57;;;;;;;10.10;3.47;;;22.50;93.50;;;;;;5080811;28;20048;-61
2022/10/07 08:54:28;;;;;;;10.43;2.78;;;23.10;92.50;;;;;;5093202;28;20044;-61
2022/10/07 08:57:02;;;;;;;11.98;3.17;;;23.20;91.60;;;;;;5091730;28;20146;-61
2022/10/07 08:59:32;;;;;;;12.82;3.40;;;23.30;92.20;;;;;;5115697;28;20056;-61
2022/10/07 09:02:04;;;;;;;;;;;23.50;92.00;;;;;;5097496;28;20098;-61
2022/10/07 09:04:43;;;;;;;12.40;3.50;;;23.10;90.50;;;;;;5076477;28;20014;-61
2022/10/07 09:07:14;;;;;;;10.75;2.72;;;23.50;90.90;;;;;;5091004;28;20090;-62
2022/10/07 09:09:44;;;;;;;11.85;2.72;;;23.70;91.00;;;;;;5089512;28;20119;-59
2022/10/07 09:12:21;;;;;;;12.15;3.55;;;23.60;90.80;;;;;;5099752;28;20052;-60
2022/10/07 09:14:52;;;;;;;11.48;4.40;;;23.50;90.20;;;;;;5076954;28;20615;-61
2022/10/07 09:17:24;;;;;;;12.88;3.08;;;23.60;91.20;;;;;;5077255;28;20059;-61
2022/10/07 09:19:57;;;;;;;12.13;3.50;;;23.40;91.40;;;;;;5076340;28;20056;-60
2022/10/07 09:22:30;;;;;;;12.00;3.42;;;23.70;91.10;;;;;;5075939;28;20483;-61
2022/10/07 09:25:05;;;;;;;10.25;2.92;;;23.90;90.00;;;;;;5098342;28;20075;-61
2022/10/07 09:27:32;;;;;;;8.27;3.10;;;24.10;90.60;;;;;;5094688;28;20048;-61
2022/10/07 09:29:59;;;;;;;13.60;3.28;;;24.20;90.50;;;;;;5093085;28;20151;-60
2022/10/07 09:32:26;;;;;;;9.75;3.17;;;25.20;90.60;;;;;;5080498;28;20044;-61
2022/10/07 09:34:53;;;;;;;14.23;3.90;;;25.00;89.40;;;;;;5094932;28;20048;-61
2022/10/07 09:37:21;;;;;;;8.30;2.78;;;25.60;89.40;;;;;;5093410;28;20048;-61
2022/10/07 09:39:51;;;;;;;8.98;3.03;;;25.00;86.90;;;;;;5094174;28;20089;-61
2022/10/07 09:42:37;;;;;;;14.20;3.60;;;24.80;89.30;;;;;;5081946;28;20047;-62
2022/10/07 09:45:18;;;;;;;12.98;3.25;;;25.40;88.00;;;;;;5111589;28;20055;-62
2022/10/07 09:47:51;;;;;;;15.80;3.63;;;25.40;87.20;;;;;;5093873;28;20047;-61
2022/10/07 09:50:35;;;;;;;13.73;3.05;;;24.90;86.00;;;;;;5079693;28;20066;-61
2022/10/07 09:53:03;;;;;;;10.57;3.13;;;25.40;86.60;;;;;;5067934;27;20048;-62
2022/10/07 09:55:38;;;;;;;8.95;3.22;;;25.30;86.90;;;;;;5093666;28;20060;-60
2022/10/07 09:58:06;;;;;;;9.98;3.28;;;25.20;87.10;;;;;;5075910;28;20051;-61
2022/10/07 10:00:42;;;;;;;9.40;2.83;;;25.10;86.50;;;;;;5094823;28;20089;-62
2022/10/07 10:03:10;;;;;;;10.02;3.08;;;24.80;86.70;;;;;;5080027;28;20044;-61
2022/10/07 10:05:39;;;;;;;14.15;3.15;;;24.70;88.20;;;;;;5093786;28;20055;-61
2022/10/07 10:08:19;;;;;;;12.67;3.27;;;24.50;88.20;;;;;;5085801;28;20479;-61
2022/10/07 10:10:52;;;;;;;10.40;2.72;;;24.60;88.10;;;;;;5106014;28;20094;-61
2022/10/07 10:13:31;;;;;;;12.02;3.05;;;24.80;87.60;;;;;;5093772;28;20113;-62
2022/10/07 10:15:58;;;;;;;15.95;2.97;;;25.30;86.30;;;;;;5095331;28;20491;-61
2022/10/07 10:18:37;;;;;;;11.85;3.33;;;26.10;85.90;;;;;;5097665;28;20392;-62
2022/10/07 10:21:28;;;;;;;11.75;2.80;;;25.50;84.70;;;;;;5088947;28;20111;-62
2022/10/07 10:23:58;;;;;;;10.85;3.25;;;25.20;84.90;;;;;;5101982;28;20040;-62
2022/10/07 10:26:50;;;;;;;13.95;3.08;;;25.40;86.40;;;;;;5107747;27;20051;-61
2022/10/07 10:29:34;;;;;;;9.90;2.85;;;25.20;84.60;;;;;;5106758;27;20052;-62
2022/10/07 10:32:28;;;;;;;10.43;3.47;;;25.40;84.60;;;;;;5107562;28;20039;-60
2022/10/07 10:35:01;;;;;;;8.90;2.85;;;25.10;84.20;;;;;;5106847;28;20085;-59
2022/10/07 10:37:42;;;;;;;10.70;2.80;;;25.10;85.50;;;;;;5089144;28;20048;-61
2022/10/07 10:40:17;;;;;;;;;;;25.20;85.30;;;;;;5106474;28;20036;-61
2022/10/07 10:42:54;;;;;;;8.27;3.00;;;25.50;85.10;;;;;;5106051;27;19976;-61
2022/10/07 10:45:34;;;;;;;12.27;2.65;;;26.00;85.10;;;;;;5120365;27;20048;-60
2022/10/07 10:48:18;;;;;;;7.30;2.20;;;26.40;82.80;;;;;;5099292;27;20060;-61
2022/10/07 10:50:56;;;;;;;9.80;2.35;;;26.30;82.40;;;;;;5095280;27;20062;-62
2022/10/07 10:53:36;;;;;;;12.65;3.22;;;26.10;83.20;;;;;;5086642;28;20052;-61
2022/10/07 10:56:19;;;;;;;10.63;2.83;;;26.40;83.10;;;;;;5086162;28;20052;-61
2022/10/07 10:58:57;;;;;;;11.68;2.97;;;25.70;82.70;;;;;;5094646;28;20043;-61
2022/10/07 11:01:33;;;;;;;11.50;2.80;;;25.70;83.00;;;;;;5105321;28;20040;-61
2022/10/07 11:04:25;;;;;;;9.63;3.03;;;25.60;83.90;;;;;;5086067;28;20047;-61
2022/10/07 11:06:57;;;;;;;9.43;2.60;;;25.40;84.40;;;;;;5086397;28;20072;-60
2022/10/07 11:09:31;;;;;;;11.07;2.92;;;25.30;85.50;;;;;;5086930;28;20556;-60
2022/10/07 11:12:03;;;;;;;7.72;2.70;;;25.20;84.50;;;;;;5101772;28;20108;-60
2022/10/07 11:14:33;;;;;;;9.68;2.78;;;24.60;85.90;;;;;;5111077;27;20058;-61
2022/10/07 11:17:05;;;;;;;8.45;2.55;;;25.00;86.30;;;;;;5087851;28;20043;-61
2022/10/07 11:19:37;;;;;;;7.07;2.30;;;25.20;85.40;;;;;;5105262;28;20490;-61
2022/10/07 11:22:11;;;;;;;9.38;2.88;;;25.40;85.20;;;;;;5105126;28;20051;-60
2022/10/07 11:24:41;;;;;;;7.97;2.58;;;26.00;84.20;;;;;;5104744;28;20040;-60
2022/10/07 11:27:13;;;;;;;;;;;25.20;84.60;;;;;;5111360;27;20047;-60
2022/10/07 11:29:48;;;;;;;16.50;3.33;;;24.60;86.90;;;;;;5104362;27;19923;-60
2022/10/07 11:32:22;;;;;;;7.85;2.60;;;24.60;85.50;;;;;;5110947;27;20075;-60
2022/10/07 11:34:55;;;;;;;13.80;3.28;;;24.50;86.20;;;;;;5109725;27;20036;-60
2022/10/07 11:37:28;;;;;;;12.35;3.13;;;23.80;88.00;;;;;;5112156;27;20768;-60
2022/10/07 11:39:56;;;;;;;6.32;2.22;;;24.00;89.00;;;;;;5101564;27;20044;-60
2022/10/07 11:42:26;;;;;;;8.10;2.70;;;23.50;89.30;;;;;;5104531;28;20422;-60
2022/10/07 11:45:00;;;;;;;11.02;2.25;;;22.50;90.40;;;;;;5106495;28;20040;-60
2022/10/07 11:47:33;;;;;;;8.93;2.80;;;21.70;91.80;;;;;;5106078;28;20104;-60
2022/10/07 11:50:06;;;;;;;9.30;2.70;;;20.70;93.70;;;;;;5102345;28;20050;-60
2022/10/07 11:52:39;;;;;;;6.72;2.38;;;20.50;94.20;;;;;;5105740;28;20119;-61
2022/10/07 11:55:10;;;;;;;9.60;2.60;;;20.20;95.30;;;;;;5106080;28;20422;-60
2022/10/07 11:57:42;;;;;;;10.65;2.72;;;20.20;96.00;;;;;;5087792;28;20073;-61
2022/10/07 12:00:25;;;;;;;6.30;2.38;;;20.60;95.70;;;;;;5089728;28;20081;-60
2022/10/07 12:02:52;;;;;;;13.27;2.50;;;21.30;94.80;;;;;;5089180;28;20238;-60
2022/10/07 12:06:04;;;;;;;9.88;3.08;;;21.70;93.80;;;;;;5105917;28;20039;-61
2022/10/07 12:08:34;;;;;;;12.23;2.60;;;22.10;93.60;;;;;;5104750;28;20047;-60
2022/10/07 12:11:41;;;;;;;6.95;2.75;;;21.80;93.50;;;;;;5087034;28;20054;-60
2022/10/07 12:14:35;;;;;;;8.70;2.75;;;21.70;94.20;;;;;;5109972;28;20051;-61
2022/10/07 12:17:21;;;;;;;9.10;2.55;;;21.80;94.00;;;;;;5104098;28;20047;-61
2022/10/07 12:20:10;;;;;;;8.73;2.72;;;21.90;94.20;;;;;;5104396;28;20055;-62
2022/10/07 12:22:39;;;;;;;12.15;3.65;;;21.80;93.80;;;;;;5103747;28;20051;-61
2022/10/07 12:25:30;;;;;;;7.90;2.33;;;21.20;94.60;;;;;;5088447;28;20523;-61
2022/10/07 12:27:58;;;;;;;9.82;2.60;;;20.90;95.30;;;;;;5109691;28;20039;-61
2022/10/07 12:30:41;;;;;;;10.38;2.70;;;20.50;95.70;;;;;;5116019;28;20052;-61
2022/10/07 12:33:15;;;;;;;8.50;2.60;;;20.30;96.80;;;;;;5115687;27;20095;-61
2022/10/07 12:35:48;;;;;;;10.88;2.50;;;20.30;97.10;;;;;;5109402;28;20490;-60
2022/10/07 12:38:25;;;;;;;10.15;2.50;;;20.40;97.10;;;;;;5110641;28;20414;-60
2022/10/07 12:41:05;;;;;;;11.63;2.35;;;20.40;97.20;;;;;;5090625;28;20502;-61
2022/10/07 12:43:45;;;;;;;13.57;3.83;;;20.40;97.50;;;;;;5109466;28;20100;-60
2022/10/07 12:46:15;;;;;;;11.90;2.97;;;20.30;97.70;;;;;;5107853;28;20059;-61
2022/10/07 12:48:46;;;;;;;8.27;2.35;;;19.90;98.30;;;;;;5115723;27;20048;-61
2022/10/07 12:51:18;;;;;;;9.98;2.70;;;19.70;98.50;;;;;;5090063;28;20112;-60
2022/10/07 12:53:48;;;;;;;13.57;3.17;;;19.60;99.00;;;;;;5106148;27;20408;-60
2022/10/07 12:56:21;;;;;;;9.70;3.17;;;19.90;98.80;;;;;;5109751;28;20044;-61
2022/10/07 13:02:25;;;;;;;9.90;2.97;;;20.10;98.90;;;;;;5111459;28;20455;-59
2022/10/07 13:05:43;;;;;;;12.18;2.40;;;20.00;99.10;;;;;;5108136;28;20059;-62
2022/10/07 13:08:45;;;;;;;8.68;2.55;;;19.80;99.60;;;;;;5108285;28;20135;-61
2022/10/07 13:12:00;;;;;;;10.63;2.10;;;19.60;99.50;;;;;;5099992;28;20866;-61
2022/10/07 13:14:36;;;;;;;9.23;2.33;;;19.30;99.60;;;;;;5013541;28;20049;-61
2022/10/07 13:17:22;;;;;;;6.75;2.15;;;19.20;99.90;;;;;;5102484;27;20404;-61